Time;durP1;ratioP1;P1;durP2;ratioP2;P2;SDS_P1;SDS_P2;PMS_P1;PMS_P2;Temp;Humidity;BMP_temperature;BMP_pressure;BME280_temperature;BME280_humidity;BME280_pressure;Samples;Min_cycle;Max_cycle;Signal;HPM_P1;HPM_P2
2021/07/23 00:00:39;;;;;;;3.50;3.20;;;22.50;65.60;;;;;;5097207;28;20071;-72
2021/07/23 00:03:05;;;;;;;4.15;3.13;;;22.50;65.60;;;;;;5097561;28;20075;-72
2021/07/23 00:05:31;;;;;;;3.47;3.17;;;22.50;65.60;;;;;;5098158;28;20067;-72
2021/07/23 00:07:57;;;;;;;3.60;3.20;;;22.50;65.60;;;;;;5097578;28;20101;-72
2021/07/23 00:10:23;;;;;;;3.63;3.25;;;22.50;65.50;;;;;;5097315;28;20451;-72
2021/07/23 00:12:48;;;;;;;3.65;3.22;;;22.50;65.50;;;;;;5097122;28;20036;-72
2021/07/23 00:15:15;;;;;;;3.20;2.90;;;22.50;65.50;;;;;;5097984;28;20327;-72
2021/07/23 00:17:40;;;;;;;3.60;3.08;;;22.50;65.50;;;;;;5097748;28;20122;-72
2021/07/23 00:20:07;;;;;;;4.22;3.10;;;22.50;65.50;;;;;;5097570;28;20123;-72
2021/07/23 00:22:33;;;;;;;3.63;2.92;;;22.40;65.40;;;;;;5097376;28;20038;-72
2021/07/23 00:24:59;;;;;;;3.78;2.90;;;22.50;65.50;;;;;;5097208;28;20044;-72
2021/07/23 00:27:25;;;;;;;3.67;2.92;;;22.40;65.40;;;;;;5097127;28;20036;-72
2021/07/23 00:29:51;;;;;;;4.18;3.33;;;22.40;65.40;;;;;;5097702;28;20040;-72
2021/07/23 00:32:17;;;;;;;3.72;2.70;;;22.40;65.40;;;;;;5096893;28;20044;-72
2021/07/23 00:34:43;;;;;;;4.78;3.42;;;22.40;65.40;;;;;;5097037;28;20036;-72
2021/07/23 00:37:09;;;;;;;3.45;2.83;;;22.40;65.40;;;;;;5096885;28;20048;-73
2021/07/23 00:39:34;;;;;;;4.35;3.50;;;22.40;65.40;;;;;;5096788;28;20062;-72
2021/07/23 00:42:00;;;;;;;4.20;3.40;;;22.40;65.40;;;;;;5096762;28;20044;-72
2021/07/23 00:44:27;;;;;;;3.72;2.97;;;22.40;65.40;;;;;;5096563;28;20082;-73
2021/07/23 00:46:55;;;;;;;3.53;2.70;;;22.40;65.40;;;;;;5096839;28;20040;-72
2021/07/23 00:49:21;;;;;;;3.28;2.85;;;22.40;65.50;;;;;;5096128;28;20036;-72
2021/07/23 00:51:48;;;;;;;3.55;2.95;;;22.40;65.60;;;;;;5096525;28;20090;-72
2021/07/23 00:54:14;;;;;;;4.57;3.10;;;22.40;65.60;;;;;;5096797;28;20036;-74
2021/07/23 00:56:41;;;;;;;3.08;2.78;;;22.40;65.60;;;;;;5096723;28;20075;-72
2021/07/23 00:59:07;;;;;;;4.20;3.00;;;22.40;65.50;;;;;;5096980;28;20036;-72
2021/07/23 01:01:36;;;;;;;4.07;3.10;;;22.40;65.50;;;;;;5096414;28;20044;-72
2021/07/23 01:04:03;;;;;;;3.80;3.33;;;22.40;65.50;;;;;;5096395;28;20048;-72
2021/07/23 01:06:29;;;;;;;3.30;2.72;;;22.40;65.50;;;;;;5096147;28;20050;-72
2021/07/23 01:08:55;;;;;;;3.53;2.90;;;22.40;65.50;;;;;;5096124;28;20044;-73
2021/07/23 01:11:25;;;;;;;2.88;2.50;;;22.40;65.50;;;;;;5096321;28;20161;-72
2021/07/23 01:13:51;;;;;;;4.60;3.05;;;22.40;65.50;;;;;;5096369;28;20043;-72
2021/07/23 01:16:17;;;;;;;4.50;2.67;;;22.30;65.40;;;;;;5096299;28;20032;-72
2021/07/23 01:18:42;;;;;;;3.25;2.95;;;22.30;65.40;;;;;;5096197;28;20366;-72
2021/07/23 01:21:09;;;;;;;3.85;3.00;;;22.40;65.50;;;;;;5095940;28;20043;-72
2021/07/23 01:23:35;;;;;;;3.80;2.63;;;22.40;65.50;;;;;;5095929;28;20043;-73
2021/07/23 01:26:03;;;;;;;3.10;2.70;;;22.30;65.40;;;;;;5095967;28;20071;-72
2021/07/23 01:28:32;;;;;;;3.15;2.30;;;22.30;65.40;;;;;;5096134;28;20077;-73
2021/07/23 01:30:58;;;;;;;3.88;2.83;;;22.40;65.50;;;;;;5095770;28;20223;-72
2021/07/23 01:33:25;;;;;;;3.03;2.78;;;22.30;65.40;;;;;;5096125;28;20043;-72
2021/07/23 01:35:51;;;;;;;3.30;2.67;;;22.30;65.40;;;;;;5096001;28;20040;-72
2021/07/23 01:38:20;;;;;;;3.17;2.75;;;22.30;65.40;;;;;;5095722;28;20489;-72
2021/07/23 01:40:48;;;;;;;3.80;3.22;;;22.30;65.40;;;;;;5095890;28;20073;-72
2021/07/23 01:43:15;;;;;;;2.95;2.55;;;22.30;65.40;;;;;;5095518;28;20047;-72
2021/07/23 01:45:42;;;;;;;3.45;2.90;;;22.30;65.40;;;;;;5096347;28;20067;-72
2021/07/23 01:48:08;;;;;;;2.70;2.42;;;22.30;65.40;;;;;;5095651;28;20499;-72
2021/07/23 01:50:34;;;;;;;3.22;2.70;;;22.30;65.50;;;;;;5095297;28;20142;-73
2021/07/23 01:53:00;;;;;;;5.55;3.10;;;22.30;65.50;;;;;;5095203;28;20043;-72
2021/07/23 01:55:25;;;;;;;3.08;2.67;;;22.30;65.50;;;;;;5095552;28;20074;-72
2021/07/23 01:57:51;;;;;;;2.60;2.38;;;22.30;65.50;;;;;;5095532;28;20056;-72
2021/07/23 02:00:17;;;;;;;4.25;2.95;;;22.30;65.60;;;;;;5095633;28;20054;-72
2021/07/23 02:02:44;;;;;;;3.38;2.67;;;22.30;65.90;;;;;;5095002;28;20032;-72
2021/07/23 02:05:10;;;;;;;3.67;2.95;;;22.30;65.50;;;;;;5095384;28;20036;-73
2021/07/23 02:07:36;;;;;;;3.45;2.75;;;22.30;65.50;;;;;;5095713;28;20475;-72
2021/07/23 02:10:05;;;;;;;3.72;2.72;;;22.30;65.50;;;;;;5095070;28;20036;-72
2021/07/23 02:12:30;;;;;;;3.55;2.75;;;22.30;65.40;;;;;;5095305;28;20051;-72
2021/07/23 02:14:56;;;;;;;3.53;2.58;;;22.30;65.40;;;;;;5095511;28;20039;-72
2021/07/23 02:17:22;;;;;;;3.33;2.80;;;22.30;65.50;;;;;;5095239;28;20048;-72
2021/07/23 02:19:48;;;;;;;4.25;3.13;;;22.30;65.50;;;;;;5095169;28;20047;-73
2021/07/23 02:22:14;;;;;;;3.95;2.80;;;22.30;65.50;;;;;;5095687;28;20119;-73
2021/07/23 02:24:40;;;;;;;3.22;2.50;;;22.30;65.40;;;;;;5095496;28;20036;-72
2021/07/23 02:27:06;;;;;;;2.88;2.60;;;22.30;65.40;;;;;;5095105;28;20343;-72
2021/07/23 02:29:31;;;;;;;2.95;2.65;;;22.30;65.40;;;;;;5094815;28;20046;-72
2021/07/23 02:31:57;;;;;;;3.83;2.67;;;22.20;65.40;;;;;;5095171;28;20055;-72
2021/07/23 02:34:23;;;;;;;3.65;2.72;;;22.20;65.40;;;;;;5094958;28;20044;-73
2021/07/23 02:36:49;;;;;;;3.35;2.75;;;22.20;65.40;;;;;;5095575;28;20339;-72
2021/07/23 02:39:15;;;;;;;2.63;2.25;;;22.20;65.40;;;;;;5094897;28;20036;-73
2021/07/23 02:41:41;;;;;;;3.33;2.50;;;22.20;65.40;;;;;;5095197;28;20059;-72
2021/07/23 02:44:07;;;;;;;2.75;2.47;;;22.20;66.00;;;;;;5094883;28;20063;-72
2021/07/23 02:46:33;;;;;;;3.47;2.60;;;22.20;65.30;;;;;;5095147;28;20123;-72
2021/07/23 02:48:58;;;;;;;4.03;2.72;;;22.20;65.40;;;;;;5094955;28;20044;-73
2021/07/23 02:51:24;;;;;;;4.45;2.85;;;22.20;65.40;;;;;;5094795;28;20054;-72
2021/07/23 02:53:50;;;;;;;3.67;2.85;;;22.20;65.40;;;;;;5094862;28;20054;-72
2021/07/23 02:56:16;;;;;;;3.72;2.70;;;22.20;65.40;;;;;;5094879;28;20098;-72
2021/07/23 02:58:42;;;;;;;3.13;2.72;;;22.20;65.40;;;;;;5094815;28;20040;-72
2021/07/23 03:01:09;;;;;;;3.40;2.88;;;22.20;65.40;;;;;;5095027;28;20332;-72
2021/07/23 03:03:36;;;;;;;3.22;2.80;;;22.20;65.40;;;;;;5094606;28;20131;-73
2021/07/23 03:06:02;;;;;;;2.63;2.40;;;22.20;65.40;;;;;;5094283;28;20355;-72
2021/07/23 03:08:28;;;;;;;3.15;2.85;;;22.20;65.50;;;;;;5095145;28;20047;-72
2021/07/23 03:10:55;;;;;;;3.10;2.75;;;22.20;65.40;;;;;;5094586;28;20055;-72
2021/07/23 03:13:21;;;;;;;3.28;2.83;;;22.20;65.40;;;;;;5096670;28;20070;-72
2021/07/23 03:15:46;;;;;;;3.60;3.00;;;22.20;65.40;;;;;;5080787;28;20403;-72
2021/07/23 03:18:12;;;;;;;3.88;2.78;;;22.20;65.40;;;;;;5098492;28;20043;-72
2021/07/23 03:20:38;;;;;;;3.38;2.97;;;22.20;65.40;;;;;;5098224;28;20089;-72
2021/07/23 03:23:05;;;;;;;3.70;2.95;;;22.20;65.40;;;;;;5098802;28;20093;-72
2021/07/23 03:25:31;;;;;;;3.47;2.88;;;22.20;65.40;;;;;;5098316;28;20047;-72
2021/07/23 03:27:58;;;;;;;3.65;2.90;;;22.20;65.40;;;;;;5098626;28;20059;-72
2021/07/23 03:30:25;;;;;;;3.20;2.90;;;22.20;65.40;;;;;;5098109;28;20046;-72
2021/07/23 03:32:50;;;;;;;3.05;2.70;;;22.20;65.30;;;;;;5098178;28;20108;-73
2021/07/23 03:35:16;;;;;;;3.60;3.00;;;22.20;65.30;;;;;;5098158;28;20506;-72
2021/07/23 03:37:42;;;;;;;3.80;3.10;;;22.10;65.20;;;;;;5098794;28;20046;-72
2021/07/23 03:40:08;;;;;;;3.50;2.97;;;22.20;65.30;;;;;;5098277;28;20039;-72
2021/07/23 03:42:35;;;;;;;5.00;3.38;;;22.10;65.20;;;;;;5097759;28;20048;-72
2021/07/23 03:45:01;;;;;;;3.83;3.10;;;22.10;65.80;;;;;;5098164;28;20108;-72
2021/07/23 03:47:27;;;;;;;4.32;3.25;;;22.10;65.30;;;;;;5097981;28;20355;-72
2021/07/23 03:49:53;;;;;;;3.70;3.30;;;22.10;65.80;;;;;;5098270;28;20036;-72
2021/07/23 03:52:18;;;;;;;3.67;3.13;;;22.10;65.20;;;;;;5097907;28;20036;-72
2021/07/23 03:54:44;;;;;;;3.90;3.47;;;22.10;65.20;;;;;;5097930;28;20044;-72
2021/07/23 03:57:10;;;;;;;4.40;3.28;;;22.10;65.30;;;;;;5097847;28;20363;-73
2021/07/23 03:59:36;;;;;;;3.63;3.00;;;22.10;65.20;;;;;;5097723;28;20051;-73
2021/07/23 04:02:03;;;;;;;3.80;3.35;;;22.10;65.30;;;;;;5097282;28;20052;-73
2021/07/23 04:04:30;;;;;;;3.85;3.10;;;22.10;65.30;;;;;;5097544;28;20426;-72
2021/07/23 04:06:59;;;;;;;4.50;3.60;;;22.10;65.30;;;;;;5097542;28;20131;-72
2021/07/23 04:09:29;;;;;;;4.07;3.38;;;22.10;65.30;;;;;;5098155;28;20044;-72
2021/07/23 04:11:55;;;;;;;4.57;3.60;;;22.10;65.30;;;;;;5097668;28;20051;-72
2021/07/23 04:14:22;;;;;;;3.92;3.22;;;22.10;65.40;;;;;;5097411;28;20350;-72
2021/07/23 04:16:49;;;;;;;3.45;2.97;;;22.10;65.30;;;;;;5097358;28;20516;-72
2021/07/23 04:19:15;;;;;;;4.05;3.50;;;22.10;65.30;;;;;;5097258;28;20439;-72
2021/07/23 04:21:42;;;;;;;3.92;3.47;;;22.10;65.30;;;;;;5097330;28;20040;-72
2021/07/23 04:24:08;;;;;;;4.05;3.65;;;22.10;65.30;;;;;;5096272;28;20127;-72
2021/07/23 04:26:34;;;;;;;4.50;3.50;;;22.10;65.90;;;;;;5097584;28;20410;-72
2021/07/23 04:29:00;;;;;;;4.53;3.53;;;22.10;65.20;;;;;;5097072;28;20439;-72
2021/07/23 04:31:28;;;;;;;3.88;3.47;;;22.10;65.30;;;;;;5096800;28;20082;-72
2021/07/23 04:33:58;;;;;;;4.13;3.60;;;22.10;65.20;;;;;;5097091;28;20450;-72
2021/07/23 04:36:24;;;;;;;5.68;4.20;;;22.10;65.20;;;;;;5097376;28;20047;-72
2021/07/23 04:38:49;;;;;;;3.92;3.53;;;22.10;65.20;;;;;;5096732;28;20044;-72
2021/07/23 04:41:15;;;;;;;4.88;3.72;;;22.10;65.20;;;;;;5096725;28;20108;-72
2021/07/23 04:43:41;;;;;;;5.03;3.90;;;22.00;65.20;;;;;;5096873;28;20051;-72
2021/07/23 04:46:07;;;;;;;4.68;4.07;;;22.10;65.20;;;;;;5097285;28;20332;-73
2021/07/23 04:48:34;;;;;;;3.95;3.20;;;22.10;65.20;;;;;;5096841;28;20426;-72
2021/07/23 04:51:03;;;;;;;4.07;3.67;;;22.10;65.20;;;;;;5096385;28;20131;-73
2021/07/23 04:53:31;;;;;;;5.00;4.07;;;22.10;65.20;;;;;;5096755;28;20040;-72
2021/07/23 04:56:00;;;;;;;4.20;3.80;;;22.10;65.20;;;;;;5096426;28;20044;-72
2021/07/23 04:58:27;;;;;;;4.90;3.90;;;22.10;65.20;;;;;;5096519;28;20048;-72
2021/07/23 05:00:53;;;;;;;4.38;3.97;;;22.00;65.20;;;;;;5096345;28;20044;-73
2021/07/23 05:03:39;;;;;;;4.50;4.10;;;22.10;65.30;;;;;;5096439;28;20456;-72
2021/07/23 05:06:07;;;;;;;4.30;3.83;;;22.10;65.20;;;;;;5096388;28;20086;-72
2021/07/23 05:08:35;;;;;;;4.47;4.07;;;22.00;65.30;;;;;;5096518;28;20035;-72
2021/07/23 05:11:02;;;;;;;5.03;4.53;;;22.00;65.90;;;;;;5096159;28;20040;-72
2021/07/23 05:13:34;;;;;;;4.90;4.10;;;22.10;65.40;;;;;;5096770;28;20055;-72
2021/07/23 05:16:00;;;;;;;5.00;4.30;;;22.10;65.40;;;;;;5096133;28;20044;-72
2021/07/23 05:18:27;;;;;;;5.03;4.28;;;22.00;65.30;;;;;;5078807;28;20048;-72
2021/07/23 05:20:53;;;;;;;4.47;4.00;;;22.10;65.40;;;;;;5096138;28;20368;-72
2021/07/23 05:23:20;;;;;;;5.05;4.55;;;22.00;65.30;;;;;;5096040;28;20032;-72
2021/07/23 05:25:46;;;;;;;4.88;4.40;;;22.00;65.30;;;;;;5096056;28;20392;-72
2021/07/23 05:28:12;;;;;;;4.78;4.28;;;22.00;65.30;;;;;;5095951;28;20048;-72
2021/07/23 05:30:37;;;;;;;4.50;4.10;;;22.00;65.30;;;;;;5096088;28;20126;-72
2021/07/23 05:33:03;;;;;;;4.65;3.85;;;22.00;66.00;;;;;;5095814;28;20040;-72
2021/07/23 05:35:29;;;;;;;5.30;4.40;;;22.00;65.30;;;;;;5096015;28;20039;-72
2021/07/23 05:37:55;;;;;;;4.97;4.47;;;22.00;65.30;;;;;;5095628;28;20358;-73
2021/07/23 05:40:21;;;;;;;5.57;5.00;;;22.00;65.30;;;;;;5095493;28;20354;-72
2021/07/23 05:42:47;;;;;;;5.20;4.70;;;22.00;65.30;;;;;;5095655;28;20036;-73
2021/07/23 05:45:13;;;;;;;4.75;4.25;;;22.00;65.30;;;;;;5095678;28;20063;-72
2021/07/23 05:47:38;;;;;;;4.72;4.25;;;22.00;65.30;;;;;;5095773;28;20040;-72
2021/07/23 05:50:05;;;;;;;5.07;4.57;;;22.00;65.30;;;;;;5095443;28;20048;-72
2021/07/23 05:52:31;;;;;;;4.95;4.50;;;22.00;65.40;;;;;;5095359;28;20054;-72
2021/07/23 05:54:56;;;;;;;4.70;4.20;;;22.00;65.30;;;;;;5095454;28;20040;-72
2021/07/23 05:57:22;;;;;;;4.53;4.13;;;22.00;65.30;;;;;;5095511;28;20040;-72
2021/07/23 05:59:48;;;;;;;4.80;4.35;;;22.00;65.30;;;;;;5096016;28;20047;-72
2021/07/23 06:02:14;;;;;;;5.03;4.53;;;22.00;65.30;;;;;;5095544;28;20414;-72
2021/07/23 06:04:41;;;;;;;4.65;4.25;;;22.00;65.40;;;;;;5095347;28;20036;-72
2021/07/23 06:07:08;;;;;;;4.78;4.30;;;22.00;65.40;;;;;;5095378;28;20127;-72
2021/07/23 06:09:34;;;;;;;4.55;4.15;;;22.00;65.50;;;;;;5095298;28;20044;-72
2021/07/23 06:12:00;;;;;;;4.80;4.28;;;22.00;65.40;;;;;;5095964;28;20040;-72
2021/07/23 06:14:25;;;;;;;5.72;4.20;;;22.00;65.40;;;;;;5095827;28;20043;-72
2021/07/23 06:16:51;;;;;;;4.53;4.13;;;22.00;65.50;;;;;;5095431;28;20063;-72
2021/07/23 06:19:17;;;;;;;4.30;3.90;;;22.00;65.50;;;;;;5095213;28;20332;-72
2021/07/23 06:21:43;;;;;;;4.65;3.90;;;22.00;65.60;;;;;;5095151;28;20435;-72
2021/07/23 06:24:08;;;;;;;4.65;4.25;;;22.00;65.60;;;;;;5094820;28;20086;-73
2021/07/23 06:26:37;;;;;;;5.10;4.60;;;22.00;65.60;;;;;;5095463;28;20048;-72
2021/07/23 06:29:03;;;;;;;4.55;4.15;;;22.00;65.60;;;;;;5095173;28;20051;-72
2021/07/23 06:31:29;;;;;;;5.10;4.40;;;22.00;65.60;;;;;;5095767;28;20380;-72
2021/07/23 06:33:55;;;;;;;5.68;4.32;;;22.00;65.60;;;;;;5095067;28;20055;-72
2021/07/23 06:36:21;;;;;;;5.45;4.80;;;22.00;65.60;;;;;;5095058;28;20458;-72
2021/07/23 06:38:47;;;;;;;5.13;4.63;;;22.00;65.60;;;;;;5094971;28;20036;-72
2021/07/23 06:41:13;;;;;;;4.93;4.13;;;22.00;65.60;;;;;;5095382;28;20040;-72
2021/07/23 06:43:38;;;;;;;5.13;4.63;;;22.00;65.60;;;;;;5094793;28;20043;-72
2021/07/23 06:46:04;;;;;;;5.07;4.57;;;22.00;65.70;;;;;;5094846;28;20042;-72
2021/07/23 06:48:31;;;;;;;5.25;4.75;;;22.00;65.70;;;;;;5097344;28;20052;-72
2021/07/23 06:50:56;;;;;;;5.00;4.50;;;22.00;65.70;;;;;;5099208;28;20109;-72
2021/07/23 06:53:22;;;;;;;6.03;4.45;;;22.00;65.60;;;;;;5098690;28;20435;-72
2021/07/23 06:55:48;;;;;;;4.40;3.97;;;22.00;65.60;;;;;;5099593;28;20044;-72
2021/07/23 06:58:14;;;;;;;4.95;4.20;;;22.00;65.70;;;;;;5098820;28;20048;-72
2021/07/23 07:00:40;;;;;;;5.55;4.53;;;21.90;65.60;;;;;;5098535;28;20470;-72
2021/07/23 07:03:07;;;;;;;4.80;4.03;;;22.00;65.70;;;;;;5098722;28;20058;-72
2021/07/23 07:05:33;;;;;;;4.90;4.40;;;22.00;65.70;;;;;;5098701;28;20036;-72
2021/07/23 07:08:00;;;;;;;5.18;4.32;;;21.90;65.70;;;;;;5098717;28;20111;-73
2021/07/23 07:10:26;;;;;;;4.45;4.05;;;22.00;65.80;;;;;;5098336;28;20078;-73
2021/07/23 07:12:59;;;;;;;4.95;4.32;;;22.00;65.80;;;;;;5098688;28;20044;-72
2021/07/23 07:15:26;;;;;;;4.40;4.00;;;22.00;65.80;;;;;;5098545;28;20044;-72
2021/07/23 07:18:01;;;;;;;4.28;3.70;;;22.00;65.80;;;;;;5098658;28;20363;-72
2021/07/23 07:20:28;;;;;;;4.90;4.28;;;22.00;65.80;;;;;;5098163;28;20036;-72
2021/07/23 07:22:55;;;;;;;4.60;4.20;;;21.90;65.90;;;;;;5098256;28;20036;-72
2021/07/23 07:25:25;;;;;;;4.85;4.20;;;22.00;65.90;;;;;;5098473;28;20036;-72
2021/07/23 07:27:53;;;;;;;5.22;4.10;;;21.90;65.80;;;;;;5098951;28;20036;-72
2021/07/23 07:30:20;;;;;;;4.30;3.67;;;22.00;65.90;;;;;;5098047;28;20440;-72
2021/07/23 07:32:45;;;;;;;4.32;3.90;;;22.00;65.90;;;;;;5098059;28;20044;-72
2021/07/23 07:35:12;;;;;;;4.53;4.10;;;21.90;65.90;;;;;;5098703;28;20036;-72
2021/07/23 07:37:37;;;;;;;4.47;4.07;;;21.90;65.90;;;;;;5098631;28;20055;-72
2021/07/23 07:40:05;;;;;;;4.40;4.00;;;21.90;65.90;;;;;;5098438;28;20040;-72
2021/07/23 07:42:31;;;;;;;4.43;3.80;;;22.00;66.00;;;;;;5098044;28;20040;-72
2021/07/23 07:44:59;;;;;;;4.57;4.10;;;21.90;65.90;;;;;;5098577;28;20036;-72
2021/07/23 07:47:25;;;;;;;4.53;3.75;;;22.00;66.00;;;;;;5097929;28;20040;-72
2021/07/23 07:49:51;;;;;;;4.40;4.00;;;21.90;65.90;;;;;;5098455;28;20040;-72
2021/07/23 07:52:19;;;;;;;4.50;4.00;;;21.90;65.90;;;;;;5098315;28;20050;-72
2021/07/23 07:54:46;;;;;;;4.70;4.22;;;21.90;65.90;;;;;;5097608;28;20324;-73
2021/07/23 07:57:12;;;;;;;6.35;3.90;;;22.00;65.70;;;;;;5098723;28;20093;-72
2021/07/23 07:59:39;;;;;;;6.25;4.38;;;21.90;65.60;;;;;;5097829;28;20036;-72
2021/07/23 08:02:09;;;;;;;6.20;3.72;;;21.90;65.50;;;;;;5097596;28;20328;-72
2021/07/23 08:04:35;;;;;;;5.78;4.00;;;21.90;65.40;;;;;;5097378;28;20129;-72
2021/07/23 08:07:01;;;;;;;6.15;3.72;;;21.90;65.60;;;;;;5097520;28;20032;-72
2021/07/23 08:09:27;;;;;;;5.28;4.00;;;21.90;65.60;;;;;;5098118;28;20070;-72
2021/07/23 08:11:54;;;;;;;4.60;3.70;;;21.90;65.60;;;;;;5097898;28;20098;-72
2021/07/23 08:14:19;;;;;;;5.80;3.75;;;21.90;65.70;;;;;;5097587;28;20044;-71
2021/07/23 08:16:46;;;;;;;8.18;4.03;;;21.90;65.80;;;;;;5097322;28;20036;-72
2021/07/23 08:19:13;;;;;;;5.88;4.30;;;21.90;65.70;;;;;;5097030;28;20044;-72
2021/07/23 08:21:39;;;;;;;4.75;3.50;;;22.00;65.80;;;;;;5097114;28;20047;-72
2021/07/23 08:24:05;;;;;;;7.25;3.80;;;22.00;65.00;;;;;;5097734;28;20093;-72
2021/07/23 08:26:31;;;;;;;5.50;3.30;;;21.90;63.80;;;;;;5097035;28;20132;-72
2021/07/23 08:28:57;;;;;;;4.40;3.22;;;21.90;63.30;;;;;;5097150;28;20078;-72
2021/07/23 08:31:23;;;;;;;6.10;3.25;;;21.80;63.00;;;;;;5096556;28;20054;-72
2021/07/23 08:33:49;;;;;;;4.22;3.17;;;21.70;62.70;;;;;;5097145;28;20047;-72
2021/07/23 08:36:15;;;;;;;6.47;3.17;;;21.70;62.50;;;;;;5096886;28;20043;-72
2021/07/23 08:38:41;;;;;;;4.20;2.60;;;21.60;62.00;;;;;;5097262;28;20040;-72
2021/07/23 08:41:10;;;;;;;6.75;3.10;;;21.60;61.80;;;;;;5096433;28;20044;-72
2021/07/23 08:43:38;;;;;;;7.05;2.75;;;21.50;61.80;;;;;;5096763;28;20042;-72
2021/07/23 08:46:03;;;;;;;4.88;3.13;;;21.40;61.90;;;;;;5096770;28;20040;-72
2021/07/23 08:48:29;;;;;;;4.55;3.10;;;21.40;62.20;;;;;;5097125;28;20044;-72
2021/07/23 08:50:55;;;;;;;5.78;3.50;;;21.40;62.50;;;;;;5096719;28;20043;-72
2021/07/23 08:53:21;;;;;;;5.88;3.45;;;21.40;62.90;;;;;;5096603;28;20040;-72
2021/07/23 08:55:46;;;;;;;7.05;3.53;;;21.40;63.10;;;;;;5096488;28;20117;-72
2021/07/23 08:58:12;;;;;;;5.47;3.60;;;21.40;63.10;;;;;;5096329;28;20054;-72
2021/07/23 09:00:39;;;;;;;4.43;3.47;;;21.30;63.20;;;;;;5096023;28;20051;-72
2021/07/23 09:03:06;;;;;;;6.28;4.05;;;21.30;63.30;;;;;;5097030;28;20123;-72
2021/07/23 09:05:34;;;;;;;4.85;3.30;;;21.30;63.20;;;;;;5096870;28;20442;-72
2021/07/23 09:08:12;;;;;;;5.80;3.92;;;21.30;63.00;;;;;;5096104;28;20105;-72
2021/07/23 09:10:38;;;;;;;5.90;3.20;;;21.30;63.00;;;;;;5096012;28;20131;-71
2021/07/23 09:13:05;;;;;;;8.45;3.40;;;21.30;63.40;;;;;;5096225;28;20135;-72
2021/07/23 09:15:44;;;;;;;6.07;3.55;;;21.20;63.80;;;;;;5096056;28;20401;-72
2021/07/23 09:18:27;;;;;;;8.75;3.40;;;21.20;64.00;;;;;;5096325;28;20058;-72
2021/07/23 09:20:56;;;;;;;4.68;3.50;;;21.30;64.10;;;;;;5096263;28;20044;-72
2021/07/23 09:23:29;;;;;;;5.65;3.67;;;21.30;64.10;;;;;;5096558;28;20036;-72
2021/07/23 09:25:57;;;;;;;4.15;3.10;;;21.30;64.10;;;;;;5096564;28;20115;-72
2021/07/23 09:28:31;;;;;;;8.85;3.50;;;21.30;64.10;;;;;;5096102;28;20048;-71
2021/07/23 09:31:02;;;;;;;3.97;3.28;;;21.30;64.30;;;;;;5096104;28;20040;-72
2021/07/23 09:33:29;;;;;;;4.40;3.08;;;21.40;64.40;;;;;;5095835;28;20047;-72
2021/07/23 09:35:59;;;;;;;3.75;2.72;;;21.40;64.50;;;;;;5095807;28;20044;-72
2021/07/23 09:38:33;;;;;;;4.88;3.20;;;21.40;64.50;;;;;;5095941;28;20160;-72
2021/07/23 09:40:59;;;;;;;6.05;3.40;;;21.50;64.60;;;;;;5095843;28;20062;-72
2021/07/23 09:43:32;;;;;;;5.22;3.13;;;21.50;64.60;;;;;;5095658;28;20168;-72
2021/07/23 09:46:16;;;;;;;6.97;3.03;;;21.50;64.60;;;;;;5095901;28;20050;-72
2021/07/23 09:48:44;;;;;;;5.13;3.13;;;21.50;64.60;;;;;;5095701;28;20469;-72
2021/07/23 09:51:11;;;;;;;4.40;2.92;;;21.50;64.70;;;;;;5095509;28;20447;-71
2021/07/23 09:53:37;;;;;;;4.43;2.60;;;21.50;64.80;;;;;;5096010;28;20115;-72
2021/07/23 09:56:05;;;;;;;3.38;2.85;;;21.60;64.80;;;;;;5095496;28;20047;-72
2021/07/23 09:58:35;;;;;;;5.05;3.08;;;21.60;64.80;;;;;;5095564;28;20040;-72
2021/07/23 10:01:04;;;;;;;3.72;2.58;;;21.60;64.80;;;;;;5095892;28;20056;-72
2021/07/23 10:03:30;;;;;;;3.42;2.60;;;21.60;64.80;;;;;;5095865;28;20040;-72
2021/07/23 10:06:03;;;;;;;3.97;2.50;;;21.60;64.80;;;;;;5095373;28;20421;-72
2021/07/23 10:08:47;;;;;;;4.00;2.42;;;21.60;64.80;;;;;;5095439;28;20077;-71
2021/07/23 10:11:19;;;;;;;3.38;2.92;;;21.60;64.80;;;;;;5095045;28;20115;-72
2021/07/23 10:13:47;;;;;;;3.75;2.70;;;21.60;64.90;;;;;;5094940;28;20093;-72
2021/07/23 10:16:13;;;;;;;2.95;2.45;;;21.70;65.00;;;;;;5095272;28;20465;-72
2021/07/23 10:18:39;;;;;;;3.17;2.60;;;21.70;65.00;;;;;;5095580;28;20044;-72
2021/07/23 10:21:06;;;;;;;4.00;2.65;;;21.70;65.00;;;;;;5095794;28;20068;-72
2021/07/23 10:23:35;;;;;;;3.08;2.67;;;21.70;65.00;;;;;;5094281;28;20059;-72
2021/07/23 10:26:01;;;;;;;3.65;2.58;;;21.70;65.00;;;;;;5094910;28;20104;-72
2021/07/23 10:28:36;;;;;;;3.63;2.58;;;21.70;65.10;;;;;;5095262;28;20060;-72
2021/07/23 10:31:25;;;;;;;4.85;2.88;;;21.70;65.10;;;;;;5095249;28;20043;-72
2021/07/23 10:34:01;;;;;;;3.97;2.65;;;21.70;65.10;;;;;;5095011;28;20443;-72
2021/07/23 10:36:27;;;;;;;2.70;2.40;;;21.70;65.00;;;;;;5094762;28;20035;-72
2021/07/23 10:39:05;;;;;;;4.25;2.85;;;21.70;65.00;;;;;;5094848;28;20459;-72
2021/07/23 10:41:35;;;;;;;4.57;2.67;;;21.70;65.00;;;;;;5095565;28;20044;-72
2021/07/23 10:44:02;;;;;;;3.22;2.65;;;21.70;65.10;;;;;;5095251;28;20074;-72
2021/07/23 10:46:43;;;;;;;3.47;2.42;;;21.70;65.10;;;;;;5094772;28;20060;-72
2021/07/23 10:49:10;;;;;;;3.72;3.20;;;21.70;65.10;;;;;;5094429;28;20055;-72
2021/07/23 10:51:47;;;;;;;3.70;2.88;;;21.80;65.30;;;;;;5095535;28;20110;-72
2021/07/23 10:54:14;;;;;;;3.30;2.40;;;21.80;65.30;;;;;;5095489;28;20108;-72
2021/07/23 10:57:00;;;;;;;4.05;2.55;;;21.80;65.30;;;;;;5094451;28;20139;-72
2021/07/23 10:59:51;;;;;;;3.92;2.80;;;21.80;65.30;;;;;;5094508;28;20036;-72
2021/07/23 11:02:18;;;;;;;3.80;2.40;;;21.80;65.30;;;;;;5095191;28;20120;-72
2021/07/23 11:04:45;;;;;;;3.63;2.75;;;21.80;65.30;;;;;;5095053;28;20036;-72
2021/07/23 11:07:12;;;;;;;3.63;2.63;;;21.80;65.30;;;;;;5094959;28;20115;-72
2021/07/23 11:09:39;;;;;;;3.85;2.80;;;21.80;66.00;;;;;;5094657;28;20048;-71
2021/07/23 11:12:31;;;;;;;3.97;2.78;;;21.80;65.30;;;;;;5095237;28;20083;-72
2021/07/23 11:15:02;;;;;;;2.97;2.40;;;21.80;65.30;;;;;;5094877;28;20469;-72
2021/07/23 11:17:31;;;;;;;2.95;2.53;;;21.80;65.30;;;;;;5094950;28;20066;-72
2021/07/23 11:19:59;;;;;;;3.15;2.70;;;21.80;65.30;;;;;;5094578;28;20044;-72
2021/07/23 11:22:30;;;;;;;3.63;2.28;;;21.80;65.30;;;;;;5094229;28;20107;-72
2021/07/23 11:25:06;;;;;;;3.00;2.33;;;21.80;65.30;;;;;;5094583;28;20044;-72
2021/07/23 11:27:37;;;;;;;2.70;2.45;;;21.80;65.30;;;;;;5094946;28;20118;-72
2021/07/23 11:30:17;;;;;;;5.72;2.90;;;21.90;65.30;;;;;;5094904;28;20040;-72
2021/07/23 11:32:54;;;;;;;3.55;2.50;;;21.80;65.20;;;;;;5094355;28;20120;-72
2021/07/23 11:35:23;;;;;;;2.97;2.33;;;21.80;65.10;;;;;;5097842;28;20040;-72
2021/07/23 11:37:50;;;;;;;4.03;2.63;;;21.80;65.10;;;;;;5098223;28;20145;-72
2021/07/23 11:40:18;;;;;;;3.45;2.67;;;21.80;65.00;;;;;;5098268;28;20458;-72
2021/07/23 11:42:54;;;;;;;3.88;2.65;;;21.80;65.00;;;;;;5098664;28;20032;-72
2021/07/23 11:45:31;;;;;;;3.05;2.67;;;21.90;65.00;;;;;;5097796;28;20032;-72
2021/07/23 11:48:10;;;;;;;3.45;2.35;;;21.90;65.00;;;;;;5097790;28;20039;-72
2021/07/23 11:50:36;;;;;;;2.75;2.25;;;21.90;65.00;;;;;;5097851;28;20316;-71
2021/07/23 11:53:06;;;;;;;3.08;2.10;;;21.90;65.00;;;;;;5098163;28;20115;-72
2021/07/23 11:55:40;;;;;;;3.03;1.98;;;21.90;65.00;;;;;;5098551;28;20048;-72
2021/07/23 11:58:07;;;;;;;3.50;2.40;;;21.90;64.90;;;;;;5097577;28;20350;-72
2021/07/23 12:00:33;;;;;;;4.13;3.15;;;21.90;64.90;;;;;;5098212;28;20108;-72
2021/07/23 12:03:17;;;;;;;3.55;2.50;;;21.90;64.90;;;;;;5097984;28;20043;-72
2021/07/23 12:05:44;;;;;;;2.95;2.30;;;21.90;64.80;;;;;;5097616;28;20097;-72
2021/07/23 12:08:10;;;;;;;3.40;2.33;;;21.90;64.80;;;;;;5097553;28;20032;-73
2021/07/23 12:10:36;;;;;;;3.42;2.33;;;21.90;64.80;;;;;;5097607;28;20036;-72
2021/07/23 12:13:07;;;;;;;3.15;2.60;;;21.90;64.80;;;;;;5098112;28;20060;-72
2021/07/23 12:15:50;;;;;;;3.20;2.40;;;21.90;64.70;;;;;;5097403;28;20123;-72
2021/07/23 12:18:21;;;;;;;3.22;2.22;;;22.00;64.70;;;;;;5097291;28;20051;-72
2021/07/23 12:20:48;;;;;;;4.72;2.60;;;22.00;64.70;;;;;;5097226;28;20109;-72
2021/07/23 12:23:27;;;;;;;2.42;2.20;;;22.00;64.70;;;;;;5097758;28;20097;-72
2021/07/23 12:25:54;;;;;;;2.88;2.08;;;22.00;64.70;;;;;;5097654;28;20040;-72
2021/07/23 12:28:20;;;;;;;2.90;2.38;;;22.00;64.70;;;;;;5097518;28;20043;-72
2021/07/23 12:30:47;;;;;;;2.90;2.15;;;22.00;64.70;;;;;;5096980;28;20416;-72
2021/07/23 12:33:17;;;;;;;2.90;2.00;;;22.00;64.70;;;;;;5096961;28;20036;-72
2021/07/23 12:35:45;;;;;;;3.47;2.58;;;22.00;64.70;;;;;;5097164;28;20074;-72
2021/07/23 12:38:12;;;;;;;3.22;2.10;;;22.00;64.70;;;;;;5097433;28;20067;-72
2021/07/23 12:40:49;;;;;;;2.92;2.17;;;22.10;64.70;;;;;;5096820;28;20048;-72
2021/07/23 12:43:19;;;;;;;2.60;2.20;;;22.10;64.70;;;;;;5097476;28;20036;-72
2021/07/23 12:45:49;;;;;;;3.35;2.17;;;22.10;64.70;;;;;;5095914;28;20458;-72
2021/07/23 12:48:17;;;;;;;2.85;2.03;;;22.10;64.80;;;;;;5096887;28;20040;-72
2021/07/23 12:50:44;;;;;;;2.55;2.03;;;22.10;64.70;;;;;;5096964;28;20040;-72